Time;durP1;ratioP1;P1;durP2;ratioP2;P2;SDS_P1;SDS_P2;PMS_P1;PMS_P2;Temp;Humidity;BMP_temperature;BMP_pressure;BME280_temperature;BME280_humidity;BME280_pressure;Samples;Min_cycle;Max_cycle;Signal;HPM_P1;HPM_P2
2022/07/17 00:00:06;;;;;;;9.67;6.03;;;;;;;13.12;68.03;101429.50;5124626;28;20434;-65
2022/07/17 00:02:32;;;;;;;7.53;3.70;;;;;;;13.12;68.09;101429.50;5124174;28;20505;-65
2022/07/17 00:05:00;;;;;;;6.60;3.57;;;;;;;13.08;67.86;101429.88;5124147;28;20499;-65
2022/07/17 00:07:27;;;;;;;8.30;4.07;;;;;;;13.02;67.93;101428.56;5123916;28;20462;-65
2022/07/17 00:09:54;;;;;;;5.10;3.40;;;;;;;12.97;68.20;101433.47;5124922;28;20426;-66
2022/07/17 00:12:21;;;;;;;5.50;3.50;;;;;;;12.94;68.45;101425.66;5123970;28;20505;-66
2022/07/17 00:14:47;;;;;;;4.87;3.03;;;;;;;12.90;67.99;101424.22;5123893;28;21056;-65
2022/07/17 00:17:14;;;;;;;5.40;3.10;;;;;;;12.84;68.33;101428.22;5122608;28;20478;-65
2022/07/17 00:19:41;;;;;;;6.03;3.40;;;;;;;12.81;68.62;101423.97;5124550;28;20943;-65
2022/07/17 00:22:10;;;;;;;4.43;2.77;;;;;;;12.75;69.03;101421.78;5123546;28;20485;-65
2022/07/17 00:24:37;;;;;;;4.43;2.73;;;;;;;12.76;69.00;101415.47;5124522;28;20453;-66
2022/07/17 00:27:03;;;;;;;3.50;2.90;;;;;;;12.73;69.15;101414.84;5123534;28;20868;-65
2022/07/17 00:29:30;;;;;;;7.33;2.70;;;;;;;12.66;69.29;101419.88;5124407;28;20449;-65
2022/07/17 00:31:57;;;;;;;6.30;2.37;;;;;;;12.65;69.77;101418.16;5123042;28;20474;-65
2022/07/17 00:34:24;;;;;;;4.77;3.03;;;;;;;12.62;69.77;101421.97;5123750;28;20561;-65
2022/07/17 00:36:50;;;;;;;3.27;2.30;;;;;;;12.60;69.76;101415.88;5123161;28;20966;-66
2022/07/17 00:39:19;;;;;;;9.60;2.73;;;;;;;12.63;69.91;101420.97;5123858;28;20806;-66
2022/07/17 00:41:46;;;;;;;4.50;2.70;;;;;;;12.62;69.86;101421.09;5123492;28;20474;-65
2022/07/17 00:44:13;;;;;;;4.70;2.80;;;;;;;12.61;70.12;101419.38;5123744;28;20441;-65
2022/07/17 00:46:40;;;;;;;3.87;2.03;;;;;;;12.60;70.26;101417.69;5122583;28;20477;-65
2022/07/17 00:49:07;;;;;;;3.53;2.43;;;;;;;12.58;70.13;101411.59;5123105;28;20513;-65
2022/07/17 00:51:34;;;;;;;5.23;2.37;;;;;;;12.57;70.03;101417.94;5123396;28;20966;-66
2022/07/17 00:54:03;;;;;;;4.23;2.60;;;;;;;12.54;70.21;101418.19;5123921;28;20426;-65
2022/07/17 00:56:32;;;;;;;4.70;2.57;;;;;;;12.45;70.28;101422.47;5123044;28;20469;-65
2022/07/17 00:58:59;;;;;;;4.60;2.60;;;;;;;12.39;70.66;101421.16;5123216;28;20482;-65
2022/07/17 01:01:26;;;;;;;3.77;2.30;;;;;;;12.39;70.74;101415.78;5123084;28;21050;-65
2022/07/17 01:03:53;;;;;;;5.90;3.27;;;;;;;12.38;70.76;101421.25;5123284;28;20468;-65
2022/07/17 01:06:19;;;;;;;4.70;2.47;;;;;;;12.34;70.83;101422.47;5122583;28;20506;-65
2022/07/17 01:08:46;;;;;;;8.67;2.97;;;;;;;12.33;70.78;101423.47;5122846;28;20503;-65
2022/07/17 01:11:13;;;;;;;4.80;2.27;;;;;;;12.31;71.02;101423.59;5122903;28;20466;-65
2022/07/17 01:13:41;;;;;;;4.43;1.97;;;;;;;12.29;70.86;101419.31;5123605;28;20439;-66
2022/07/17 01:16:08;;;;;;;6.23;2.03;;;;;;;12.28;71.02;101420.31;5122007;28;21053;-65
2022/07/17 01:18:35;;;;;;;5.13;1.80;;;;;;;12.26;70.83;101420.41;5122292;28;20486;-66
2022/07/17 01:21:07;;;;;;;6.70;2.13;;;;;;;12.26;70.97;101424.94;5122853;28;20576;-66
2022/07/17 01:23:34;;;;;;;4.33;2.00;;;;;;;12.24;70.90;101420.53;5123467;28;20430;-66
2022/07/17 01:26:01;;;;;;;5.67;1.97;;;;;;;12.21;70.62;101417.25;5122132;28;20473;-65
2022/07/17 01:28:29;;;;;;;7.30;2.30;;;;;;;12.19;70.66;101427.25;5122920;28;20437;-65
2022/07/17 01:30:56;;;;;;;8.33;2.30;;;;;;;12.09;71.34;101419.06;5122560;28;20971;-65
2022/07/17 01:33:22;;;;;;;3.20;1.70;;;;;;;12.06;71.58;101422.00;5122478;28;20453;-65
2022/07/17 01:35:49;;;;;;;5.23;1.93;;;;;;;12.04;71.48;101422.09;5122013;28;20509;-65
2022/07/17 01:38:17;;;;;;;4.87;2.13;;;;;;;12.05;71.31;101422.97;5122251;28;20489;-66
2022/07/17 01:40:44;;;;;;;6.07;2.00;;;;;;;12.04;71.34;101426.63;5122249;28;21074;-65
2022/07/17 01:43:10;;;;;;;4.60;1.93;;;;;;;11.98;71.69;101421.75;5123258;28;20462;-65
2022/07/17 01:45:37;;;;;;;2.67;2.43;;;;;;;11.95;71.74;101425.53;5121629;28;20519;-64
2022/07/17 01:48:05;;;;;;;2.80;1.80;;;;;;;11.85;71.83;101424.50;5121961;28;20503;-65
2022/07/17 01:50:31;;;;;;;5.07;2.43;;;;;;;11.76;72.35;101426.06;5121823;28;20466;-65
2022/07/17 01:52:58;;;;;;;3.90;1.70;;;;;;;11.71;73.03;101433.63;5122659;28;20426;-65
2022/07/17 01:55:26;;;;;;;5.30;1.80;;;;;;;11.68;73.11;101424.00;5121488;28;20453;-65
2022/07/17 01:57:53;;;;;;;4.67;2.10;;;;;;;11.63;72.80;101426.19;5122363;28;20462;-65
2022/07/17 02:00:22;;;;;;;2.30;2.03;;;;;;;11.59;72.89;101421.19;5121812;28;20452;-65
2022/07/17 02:02:49;;;;;;;7.60;2.00;;;;;;;11.59;73.21;101421.19;5122309;28;20541;-65
2022/07/17 02:05:16;;;;;;;3.97;1.50;;;;;;;11.59;73.33;101426.53;5121631;28;20446;-65
2022/07/17 02:07:44;;;;;;;4.57;1.93;;;;;;;11.59;73.58;101422.03;5122362;28;20431;-64
2022/07/17 02:10:10;;;;;;;4.50;2.00;;;;;;;11.55;73.42;101417.88;5121665;28;20430;-64
2022/07/17 02:12:39;;;;;;;5.60;2.23;;;;;;;11.56;73.44;101424.09;5122360;28;20450;-64
2022/07/17 02:15:06;;;;;;;4.40;2.40;;;;;;;11.55;73.61;101414.34;5121890;28;20450;-65
2022/07/17 02:17:33;;;;;;;5.43;2.37;;;;;;;11.52;73.61;101417.28;5120456;28;20454;-64
2022/07/17 02:20:00;;;;;;;4.03;2.03;;;;;;;11.52;73.85;101417.28;5121101;28;20468;-64
2022/07/17 02:22:26;;;;;;;2.40;1.83;;;;;;;11.48;73.76;101414.81;5121512;28;20470;-65
2022/07/17 02:24:53;;;;;;;3.40;2.10;;;;;;;11.45;74.02;101422.25;5121938;28;20442;-65
2022/07/17 02:27:20;;;;;;;3.00;2.37;;;;;;;11.39;74.37;101420.03;5121050;28;20476;-64
2022/07/17 02:29:48;;;;;;;3.03;2.07;;;;;;;11.41;74.26;101413.59;5121232;28;20512;-64
2022/07/17 02:32:15;;;;;;;5.80;2.53;;;;;;;11.37;74.38;101420.16;5120973;28;20477;-64
2022/07/17 02:34:42;;;;;;;4.60;2.43;;;;;;;11.35;74.08;101421.22;5121439;28;20529;-64
2022/07/17 02:37:10;;;;;;;4.83;1.90;;;;;;;11.33;74.23;101421.34;5120780;28;20481;-64
2022/07/17 02:39:36;;;;;;;2.80;2.30;;;;;;;11.36;73.89;101420.28;5121333;28;20779;-64
2022/07/17 02:42:03;;;;;;;3.10;2.27;;;;;;;11.31;74.03;101415.25;5121195;28;20485;-64
2022/07/17 02:44:30;;;;;;;6.30;2.00;;;;;;;11.31;74.33;101416.09;5121352;28;20451;-64
2022/07/17 02:46:58;;;;;;;2.90;1.83;;;;;;;11.26;74.38;101423.63;5120403;28;20470;-64
2022/07/17 02:49:24;;;;;;;4.13;2.10;;;;;;;11.19;73.87;101422.38;5121168;28;20446;-65
2022/07/17 02:51:51;;;;;;;4.27;2.00;;;;;;;11.12;73.84;101432.69;5120609;28;20478;-64
2022/07/17 02:54:18;;;;;;;3.53;1.80;;;;;;;11.06;74.04;101433.19;5121326;28;20647;-64
2022/07/17 02:56:44;;;;;;;2.73;1.67;;;;;;;11.02;74.18;101434.34;5120835;28;21302;-64
2022/07/17 02:59:11;;;;;;;2.43;1.70;;;;;;;10.98;74.10;101434.72;5120953;28;20482;-64
2022/07/17 03:01:38;;;;;;;2.40;2.13;;;;;;;10.92;74.11;101444.06;5120779;28;20470;-65
2022/07/17 03:04:06;;;;;;;8.37;1.83;;;;;;;10.93;74.15;101440.41;5120976;28;20442;-64
2022/07/17 03:06:32;;;;;;;4.87;1.83;;;;;;;10.95;74.34;101442.97;5120508;28;20835;-64
2022/07/17 03:08:59;;;;;;;5.53;1.97;;;;;;;10.96;74.31;101434.81;5120940;28;20457;-64
2022/07/17 03:11:26;;;;;;;3.60;1.77;;;;;;;10.95;74.25;101443.81;5120593;28;20543;-65
2022/07/17 03:13:52;;;;;;;5.77;2.10;;;;;;;10.87;74.39;101444.38;5121555;28;20437;-64
2022/07/17 03:16:19;;;;;;;2.17;1.53;;;;;;;10.81;74.33;101442.16;5119975;28;20470;-64
2022/07/17 03:18:45;;;;;;;2.03;1.67;;;;;;;10.81;74.68;101449.34;5120193;28;20535;-64
2022/07/17 03:21:13;;;;;;;4.03;2.03;;;;;;;10.78;74.62;101453.09;5120286;28;20938;-64
2022/07/17 03:23:40;;;;;;;4.77;2.40;;;;;;;10.72;74.42;101454.38;5120847;28;20508;-64
2022/07/17 03:26:07;;;;;;;2.87;1.80;;;;;;;10.72;74.99;101451.69;5120365;28;20485;-64
2022/07/17 03:28:33;;;;;;;3.07;1.83;;;;;;;10.79;74.62;101454.78;5120813;28;20464;-66
2022/07/17 03:31:00;;;;;;;3.27;2.13;;;;;;;10.78;74.54;101457.56;5119947;28;20828;-65
2022/07/17 03:33:27;;;;;;;6.10;2.57;;;;;;;10.70;74.83;101450.13;5120091;28;20815;-65
2022/07/17 03:35:53;;;;;;;3.70;1.97;;;;;;;10.73;74.87;101456.09;5120081;28;20469;-65
2022/07/17 03:38:21;;;;;;;3.73;2.00;;;;;;;10.85;74.52;101467.72;5120875;28;20595;-65
2022/07/17 03:40:48;;;;;;;4.77;1.70;;;;;;;10.93;74.47;101459.97;5119956;28;20955;-65
2022/07/17 03:43:15;;;;;;;4.03;2.03;;;;;;;11.27;73.64;101465.50;5121095;28;20438;-65
2022/07/17 03:45:42;;;;;;;3.70;2.10;;;;;;;12.04;71.28;101456.13;5119595;28;20473;-65
2022/07/17 03:48:09;;;;;;;2.67;2.03;;;;;;;13.18;67.45;101465.72;5119602;28;20446;-64
2022/07/17 03:50:36;;;;;;;2.30;1.87;;;;;;;14.29;62.91;101465.19;5120032;28;20462;-65
2022/07/17 03:53:02;;;;;;;2.73;1.90;;;;;;;14.96;59.80;101468.25;5121076;28;20436;-65
2022/07/17 03:55:30;;;;;;;4.00;2.00;;;;;;;15.81;56.60;101471.25;5120009;28;20469;-65
2022/07/17 03:57:57;;;;;;;3.53;1.53;;;;;;;16.68;53.85;101474.63;5120593;28;20482;-65
2022/07/17 04:00:24;;;;;;;5.77;2.30;;;;;;;17.44;51.94;101479.66;5120332;28;20461;-64
2022/07/17 04:02:51;;;;;;;1.70;1.40;;;;;;;17.64;50.33;101483.06;5119993;28;20453;-64
2022/07/17 04:05:17;;;;;;;3.60;1.70;;;;;;;16.68;52.11;101489.00;5119621;28;20465;-64
2022/07/17 04:07:45;;;;;;;5.90;2.07;;;;;;;14.82;57.40;101482.13;5120883;28;20448;-65
2022/07/17 04:10:13;;;;;;;3.10;1.80;;;;;;;13.85;61.11;101480.69;5119571;28;20453;-65
2022/07/17 04:12:41;;;;;;;1.90;1.53;;;;;;;13.22;63.72;101482.44;5120823;28;20427;-64
2022/07/17 04:15:09;;;;;;;3.50;1.73;;;;;;;12.74;66.10;101481.81;5119267;28;20442;-64
2022/07/17 04:17:36;;;;;;;4.63;1.83;;;;;;;12.56;67.08;101472.56;5119543;28;20446;-65
2022/07/17 04:20:04;;;;;;;3.63;1.73;;;;;;;12.61;67.83;101459.63;5120490;28;21018;-64
2022/07/17 04:22:30;;;;;;;4.77;1.90;;;;;;;12.74;67.18;101455.00;5119549;28;20469;-65
2022/07/17 04:24:57;;;;;;;2.30;1.80;;;;;;;12.60;67.73;101449.88;5120130;28;20460;-65
2022/07/17 04:27:24;;;;;;;3.30;1.77;;;;;;;12.60;68.35;101439.13;5119694;28;20474;-65
2022/07/17 04:29:52;;;;;;;4.00;1.80;;;;;;;12.68;68.54;101431.31;5120222;28;20453;-65
2022/07/17 04:32:18;;;;;;;8.80;2.30;;;;;;;13.13;67.65;101420.44;5119504;28;20496;-67
2022/07/17 04:34:45;;;;;;;2.83;1.30;;;;;;;14.00;65.19;101413.13;5120226;28;20450;-65
2022/07/17 04:37:12;;;;;;;3.17;2.23;;;;;;;14.00;63.85;101421.19;5119737;28;20475;-65
2022/07/17 04:39:38;;;;;;;4.33;2.30;;;;;;;13.51;65.09;101431.66;5120286;28;20529;-65
2022/07/17 04:42:06;;;;;;;3.67;1.87;;;;;;;13.67;65.75;101444.63;5119462;28;20473;-65
2022/07/17 04:44:32;;;;;;;6.10;2.30;;;;;;;14.85;62.30;101482.69;5123372;28;20426;-65
2022/07/17 04:47:00;;;;;;;2.30;1.70;;;;;;;15.91;58.46;101500.91;5122755;28;20470;-65
2022/07/17 04:49:27;;;;;;;1.80;1.37;;;;;;;15.46;58.91;101517.66;5123169;28;20446;-65
2022/07/17 04:51:54;;;;;;;4.30;1.70;;;;;;;15.33;59.30;101509.81;5123323;28;20473;-65
2022/07/17 04:54:20;;;;;;;2.97;1.87;;;;;;;16.55;55.94;101499.28;5123952;28;20855;-65
2022/07/17 04:56:47;;;;;;;2.33;1.73;;;;;;;18.83;49.37;101497.81;5123128;28;20990;-65
2022/07/17 04:59:14;;;;;;;2.47;1.70;;;;;;;19.24;47.26;101488.97;5123831;28;20756;-65
2022/07/17 05:01:40;;;;;;;5.73;1.63;;;;;;;19.55;46.25;101486.44;5122999;28;20474;-65
2022/07/17 05:04:08;;;;;;;4.57;1.40;;;;;;;20.35;44.00;101487.53;5122996;28;20446;-65
2022/07/17 05:06:35;;;;;;;7.73;2.17;;;;;;;21.04;42.76;101488.59;5122776;28;20466;-66
2022/07/17 05:09:02;;;;;;;2.97;1.70;;;;;;;21.36;41.60;101503.00;5123694;28;20503;-65
2022/07/17 05:11:28;;;;;;;2.60;1.20;;;;;;;21.45;41.03;101495.63;5122749;28;20478;-66
2022/07/17 05:13:55;;;;;;;3.83;1.70;;;;;;;21.87;40.62;101502.44;5123875;28;20431;-65
2022/07/17 05:16:22;;;;;;;3.20;1.70;;;;;;;22.06;39.52;101495.59;5122505;28;20530;-65
2022/07/17 05:18:48;;;;;;;2.93;1.40;;;;;;;21.58;40.26;101497.78;5122231;28;20508;-65
2022/07/17 05:21:16;;;;;;;2.90;1.30;;;;;;;21.00;41.79;101494.56;5123138;28;20503;-65
2022/07/17 05:23:43;;;;;;;3.83;1.67;;;;;;;20.92;41.99;101500.03;5123350;28;20490;-65
2022/07/17 05:26:10;;;;;;;3.90;1.70;;;;;;;21.88;40.36;101492.41;5122552;28;20474;-66
2022/07/17 05:28:36;;;;;;;3.37;1.80;;;;;;;22.82;38.38;101480.94;5122973;28;20460;-65
2022/07/17 05:31:03;;;;;;;5.23;1.73;;;;;;;23.20;37.30;101481.63;5122353;28;20462;-66
2022/07/17 05:33:30;;;;;;;4.93;2.33;;;;;;;23.67;36.71;101473.88;5122501;28;20456;-65
2022/07/17 05:35:57;;;;;;;4.17;1.50;;;;;;;23.57;36.94;101467.91;5122243;28;20473;-66
2022/07/17 05:38:25;;;;;;;3.77;1.47;;;;;;;23.36;37.40;101469.59;5122884;28;20470;-66
2022/07/17 05:40:51;;;;;;;5.27;2.13;;;;;;;23.71;36.94;101468.84;5121594;28;20470;-65
2022/07/17 05:43:18;;;;;;;3.80;1.43;;;;;;;24.12;36.16;101465.41;5122704;28;20434;-66
2022/07/17 05:45:45;;;;;;;9.60;2.27;;;;;;;24.13;36.73;101454.28;5121515;28;20495;-65
2022/07/17 05:48:12;;;;;;;3.63;1.43;;;;;;;23.91;36.83;101458.97;5121844;28;20507;-65
2022/07/17 05:50:38;;;;;;;3.33;1.50;;;;;;;23.47;38.48;101455.44;5121973;28;20492;-65
2022/07/17 05:53:05;;;;;;;5.20;2.00;;;;;;;23.28;38.67;101458.84;5122759;28;20458;-65
2022/07/17 05:55:33;;;;;;;4.70;1.57;;;;;;;21.04;43.70;101472.28;5120800;28;20489;-66
2022/07/17 05:57:59;;;;;;;4.00;2.30;;;;;;;20.90;44.04;101475.78;5122414;28;20753;-65
2022/07/17 06:00:26;;;;;;;6.00;1.90;;;;;;;20.17;46.99;101472.28;5121738;28;20525;-65
2022/07/17 06:02:53;;;;;;;7.37;1.60;;;;;;;21.51;44.20;101486.78;5121857;28;20478;-65
2022/07/17 06:05:19;;;;;;;5.90;1.57;;;;;;;20.54;45.60;101480.84;5121744;28;20446;-65
2022/07/17 06:07:46;;;;;;;3.67;1.53;;;;;;;22.59;41.54;101478.38;5122349;28;20422;-66
2022/07/17 06:10:13;;;;;;;5.00;1.80;;;;;;;22.67;41.28;101484.56;5121133;28;20446;-66
2022/07/17 06:12:41;;;;;;;5.60;1.83;;;;;;;21.36;44.01;101485.84;5122431;28;21365;-66
2022/07/17 06:15:08;;;;;;;4.37;2.03;;;;;;;20.73;46.30;101483.16;5121718;28;20469;-65
2022/07/17 06:17:35;;;;;;;8.40;2.40;;;;;;;22.32;42.81;101478.00;5121306;28;20990;-66
2022/07/17 06:20:02;;;;;;;4.23;2.00;;;;;;;22.70;41.08;101481.44;5121200;28;20486;-66
2022/07/17 06:22:28;;;;;;;4.20;1.90;;;;;;;20.09;46.79;101478.59;5121612;28;20474;-66
2022/07/17 06:24:55;;;;;;;4.77;2.00;;;;;;;19.88;47.58;101487.28;5121798;28;20474;-65
2022/07/17 06:27:22;;;;;;;4.33;2.17;;;;;;;19.47;49.22;101484.56;5121533;28;20512;-66
2022/07/17 06:29:50;;;;;;;3.50;2.00;;;;;;;18.83;50.31;101481.56;5121967;28;20450;-66
2022/07/17 06:32:17;;;;;;;7.13;2.40;;;;;;;19.34;49.68;101476.94;5121640;28;20496;-66
2022/07/17 06:34:43;;;;;;;5.43;2.10;;;;;;;19.98;48.21;101483.53;5120800;28;20484;-65
2022/07/17 06:37:10;;;;;;;5.27;2.70;;;;;;;21.55;43.64;101492.69;5120998;28;20674;-66
2022/07/17 06:39:37;;;;;;;9.53;2.40;;;;;;;21.64;42.88;101491.59;5121387;28;20485;-65
2022/07/17 06:42:04;;;;;;;5.37;2.03;;;;;;;22.56;41.47;101488.59;5121214;28;20519;-66
2022/07/17 06:44:30;;;;;;;2.43;1.60;;;;;;;23.86;38.99;101486.84;5121792;28;20437;-66
2022/07/17 06:46:59;;;;;;;3.40;1.67;;;;;;;24.11;37.94;101489.13;5119794;28;21017;-66
2022/07/17 06:49:25;;;;;;;5.90;2.17;;;;;;;24.10;37.56;101492.09;5120716;28;20811;-65
2022/07/17 06:51:52;;;;;;;3.80;2.23;;;;;;;24.89;35.62;101490.81;5120782;28;20550;-66
2022/07/17 06:54:19;;;;;;;5.20;1.60;;;;;;;25.29;35.37;101489.06;5121572;28;20484;-65
2022/07/17 06:56:46;;;;;;;2.47;1.63;;;;;;;25.11;34.86;101477.84;5120681;28;20466;-67
2022/07/17 06:59:12;;;;;;;4.70;1.97;;;;;;;24.98;35.52;101476.75;5120724;28;20481;-66
2022/07/17 07:01:39;;;;;;;4.60;2.20;;;;;;;25.09;35.28;101475.31;5120963;28;20474;-66
2022/07/17 07:04:07;;;;;;;7.47;2.00;;;;;;;26.02;33.74;101480.03;5120680;28;20446;-66
2022/07/17 07:06:34;;;;;;;4.63;1.67;;;;;;;26.32;33.79;101468.59;5120095;28;20503;-66
2022/07/17 07:09:01;;;;;;;5.00;1.60;;;;;;;26.08;34.28;101478.34;5121051;28;20442;-66
2022/07/17 07:11:28;;;;;;;7.30;1.90;;;;;;;26.49;32.61;101475.28;5120539;28;20477;-68
2022/07/17 07:13:55;;;;;;;5.10;2.10;;;;;;;25.22;34.71;101476.38;5121197;28;20541;-66
2022/07/17 07:16:21;;;;;;;4.23;1.33;;;;;;;26.27;33.22;101469.22;5120130;28;20470;-66
2022/07/17 07:18:48;;;;;;;3.60;1.40;;;;;;;27.54;31.11;101467.75;5119952;28;20450;-66
2022/07/17 07:21:16;;;;;;;6.63;1.40;;;;;;;27.36;31.15;101468.50;5120934;28;20466;-66
2022/07/17 07:23:43;;;;;;;4.47;1.67;;;;;;;27.46;29.67;101471.59;5121178;28;20758;-67
2022/07/17 07:26:10;;;;;;;4.80;1.07;;;;;;;28.67;27.74;101469.34;5119544;28;20499;-66
2022/07/17 07:28:37;;;;;;;4.73;1.60;;;;;;;27.28;29.84;101469.63;5121116;28;20450;-66
2022/07/17 07:31:04;;;;;;;2.50;1.30;;;;;;;26.90;30.39;101470.47;5120402;28;20489;-66
2022/07/17 07:33:31;;;;;;;4.43;1.30;;;;;;;26.61;31.25;101474.59;5120373;28;20453;-66
2022/07/17 07:35:58;;;;;;;3.60;1.40;;;;;;;26.06;33.02;101473.06;5120104;28;20473;-67
2022/07/17 07:38:26;;;;;;;2.77;1.30;;;;;;;27.21;31.01;101488.88;5120350;28;20478;-65
2022/07/17 07:40:53;;;;;;;5.90;1.30;;;;;;;24.85;34.64;101479.44;5119930;28;20470;-66
2022/07/17 07:43:19;;;;;;;2.47;1.30;;;;;;;27.26;30.81;101490.13;5121224;28;20629;-66
2022/07/17 07:45:46;;;;;;;2.50;1.00;;;;;;;27.35;30.05;101477.81;5119559;28;20499;-65
2022/07/17 07:48:13;;;;;;;4.70;1.70;;;;;;;27.53;29.83;101474.31;5120130;28;20446;-66
2022/07/17 07:50:40;;;;;;;4.77;1.63;;;;;;;28.97;27.31;101479.53;5120386;28;20476;-66
2022/07/17 07:53:06;;;;;;;5.03;1.30;;;;;;;27.60;29.64;101486.94;5120705;28;20961;-66
2022/07/17 07:55:35;;;;;;;5.23;1.73;;;;;;;28.86;28.23;101500.44;5119734;28;20526;-66
2022/07/17 07:58:05;;;;;;;5.50;1.73;;;;;;;26.74;30.40;101498.44;5120781;28;20450;-66
2022/07/17 08:00:32;;;;;;;4.30;1.43;;;;;;;26.17;31.49;101492.66;5120087;28;20482;-66
2022/07/17 08:02:58;;;;;;;5.57;1.50;;;;;;;26.86;30.43;101477.47;5120173;28;20452;-66
2022/07/17 08:05:25;;;;;;;5.23;0.97;;;;;;;27.86;28.87;101486.91;5119766;28;20445;-67
2022/07/17 08:07:52;;;;;;;6.43;1.80;;;;;;;28.64;28.04;101477.25;5120931;28;20458;-65
2022/07/17 08:10:19;;;;;;;3.73;1.50;;;;;;;28.50;27.51;101477.38;5119863;28;20496;-65
2022/07/17 08:12:47;;;;;;;5.13;1.70;;;;;;;26.56;30.11;101486.22;5120816;28;20430;-65
2022/07/17 08:15:15;;;;;;;4.57;1.13;;;;;;;26.67;31.07;101491.06;5119388;28;20442;-69
2022/07/17 08:17:42;;;;;;;5.40;1.20;;;;;;;27.94;29.22;101486.66;5119861;28;20431;-68
2022/07/17 08:20:10;;;;;;;4.23;1.50;;;;;;;28.54;28.48;101484.13;5123647;28;20486;-68
2022/07/17 08:22:36;;;;;;;2.63;0.90;;;;;;;29.87;25.81;101486.00;5124281;28;20422;-69
2022/07/17 08:25:04;;;;;;;6.83;1.70;;;;;;;29.40;26.33;101488.69;5123491;28;20469;-67
2022/07/17 08:27:35;;;;;;;5.00;1.27;;;;;;;29.29;25.99;101493.94;5121694;28;20482;-67
2022/07/17 08:30:04;;;;;;;6.70;1.37;;;;;;;28.95;27.55;101500.97;5123033;28;20438;-67
2022/07/17 08:32:31;;;;;;;4.30;1.20;;;;;;;30.18;25.02;101501.34;5123236;28;20446;-66
2022/07/17 08:34:58;;;;;;;4.77;1.43;;;;;;;29.65;25.90;101499.50;5122085;28;20480;-65
2022/07/17 08:37:25;;;;;;;3.10;1.07;;;;;;;29.05;27.02;101503.16;5123040;28;20560;-66
2022/07/17 08:39:52;;;;;;;3.60;1.40;;;;;;;29.64;24.44;101509.69;5123527;28;20586;-66
2022/07/17 08:42:19;;;;;;;2.80;1.00;;;;;;;30.33;24.07;101509.13;5122015;28;20477;-66
2022/07/17 08:44:46;;;;;;;3.40;1.20;;;;;;;28.56;26.43;101505.91;5123652;28;20442;-66
2022/07/17 08:47:15;;;;;;;2.60;1.33;;;;;;;29.15;26.08;101513.59;5121682;28;20481;-66
2022/07/17 08:49:44;;;;;;;4.10;1.50;;;;;;;28.80;27.03;101508.78;5122049;28;20446;-66
2022/07/17 08:52:11;;;;;;;3.47;1.43;;;;;;;28.76;26.24;101518.59;5122596;28;20860;-65
2022/07/17 08:54:38;;;;;;;3.80;1.00;;;;;;;26.66;29.60;101503.09;5123381;28;20430;-65
2022/07/17 08:57:05;;;;;;;3.13;1.33;;;;;;;26.86;28.97;101510.41;5121868;28;20470;-65
2022/07/17 08:59:32;;;;;;;4.00;1.20;;;;;;;28.97;27.18;101504.31;5123162;28;20482;-66
2022/07/17 09:01:59;;;;;;;1.97;0.80;;;;;;;28.26;28.10;101517.66;5122346;28;20493;-66
2022/07/17 09:04:28;;;;;;;2.33;0.90;;;;;;;29.50;26.73;101512.91;5122128;28;20456;-65
2022/07/17 09:07:02;;;;;;;3.50;0.87;;;;;;;29.81;25.32;101518.16;5122692;28;20474;-66
2022/07/17 09:09:29;;;;;;;3.80;1.07;;;;;;;30.34;25.15;101508.03;5122690;28;20450;-66
2022/07/17 09:11:58;;;;;;;3.83;1.30;;;;;;;29.34;26.33;101500.63;5121296;28;20942;-66
2022/07/17 09:14:25;;;;;;;2.23;1.20;;;;;;;27.23;28.58;101514.19;5122752;28;20427;-65
2022/07/17 09:16:53;;;;;;;2.97;1.00;;;;;;;28.33;27.09;101515.66;5121397;28;20474;-65
2022/07/17 09:19:30;;;;;;;3.20;1.50;;;;;;;29.16;25.80;101521.66;5121253;28;20449;-66
2022/07/17 09:22:07;;;;;;;3.67;1.40;;;;;;;26.98;29.10;101516.88;5122346;28;20474;-66
2022/07/17 09:24:43;;;;;;;2.80;1.40;;;;;;;25.44;31.55;101515.41;5122858;28;20433;-65
2022/07/17 09:27:10;;;;;;;2.03;0.90;;;;;;;26.40;27.60;101516.84;5120902;28;20469;-65
2022/07/17 09:29:36;;;;;;;2.03;0.87;;;;;;;28.27;25.83;101512.97;5122123;28;20928;-66
2022/07/17 09:32:03;;;;;;;4.70;1.40;;;;;;;30.56;24.20;101508.28;5120406;28;20470;-66
2022/07/17 09:34:31;;;;;;;2.80;1.10;;;;;;;30.38;24.60;101512.03;5121519;28;20888;-66
2022/07/17 09:37:02;;;;;;;4.00;1.00;;;;;;;30.45;24.29;101513.81;5121134;28;20482;-66
2022/07/17 09:39:36;;;;;;;3.30;0.90;;;;;;;29.55;24.18;101513.06;5122300;28;20478;-66
2022/07/17 09:42:03;;;;;;;3.53;1.07;;;;;;;29.37;24.84;101516.69;5121267;28;20501;-66
2022/07/17 09:44:30;;;;;;;7.33;1.50;;;;;;;28.75;25.71;101504.00;5122607;28;20430;-66
2022/07/17 09:46:57;;;;;;;3.30;1.10;;;;;;;29.78;25.24;101510.34;5120336;28;20478;-66
2022/07/17 09:49:27;;;;;;;4.37;1.20;;;;;;;31.13;22.92;101501.16;5120892;28;20474;-66
2022/07/17 09:51:56;;;;;;;3.93;1.47;;;;;;;30.55;23.08;101503.84;5121705;28;20501;-66
2022/07/17 09:54:23;;;;;;;8.60;1.40;;;;;;;30.12;23.23;101504.22;5122028;28;20440;-66
2022/07/17 09:56:51;;;;;;;2.93;0.97;;;;;;;29.99;23.03;101497.88;5120884;28;20484;-66
2022/07/17 09:59:19;;;;;;;3.80;1.03;;;;;;;29.72;23.80;101500.25;5122077;28;20449;-66
2022/07/17 10:01:49;;;;;;;2.70;0.87;;;;;;;29.39;24.67;101482.34;5121035;28;20532;-66
2022/07/17 10:04:16;;;;;;;2.17;1.10;;;;;;;28.26;26.13;101487.41;5120599;28;20466;-66
2022/07/17 10:06:44;;;;;;;2.17;1.00;;;;;;;27.45;26.47;101482.81;5121425;28;20560;-66
2022/07/17 10:09:13;;;;;;;5.27;0.83;;;;;;;28.17;24.65;101488.75;5122032;28;20519;-65
2022/07/17 10:11:41;;;;;;;2.47;1.00;;;;;;;29.94;24.85;101486.72;5120754;28;20469;-65
2022/07/17 10:14:10;;;;;;;2.97;0.80;;;;;;;29.75;24.24;101490.66;5121635;28;20480;-65
2022/07/17 10:16:38;;;;;;;2.43;1.00;;;;;;;30.41;23.09;101495.00;5120323;28;20470;-65
2022/07/17 10:19:16;;;;;;;2.13;1.00;;;;;;;30.94;23.29;101495.81;5120766;28;20446;-65
2022/07/17 10:21:53;;;;;;;3.63;1.10;;;;;;;30.20;23.35;101501.09;5120842;28;20584;-65
2022/07/17 10:24:22;;;;;;;2.00;0.80;;;;;;;29.56;23.92;101503.69;5121760;28;20514;-65
2022/07/17 10:26:49;;;;;;;5.83;1.80;;;;;;;30.47;22.73;101506.13;5119528;28;20488;-65
2022/07/17 10:29:30;;;;;;;4.63;1.13;;;;;;;31.22;20.81;101490.53;5121155;28;21104;-65
2022/07/17 10:31:58;;;;;;;4.10;1.10;;;;;;;30.20;22.22;101499.19;5120617;28;20477;-66
2022/07/17 10:34:38;;;;;;;2.97;1.10;;;;;;;29.74;23.14;101497.22;5120094;28;20461;-65
2022/07/17 10:37:15;;;;;;;2.70;1.10;;;;;;;27.71;24.93;101499.09;5120211;28;20478;-65
2022/07/17 10:39:57;;;;;;;2.60;1.03;;;;;;;25.63;27.56;101498.16;5120391;28;20987;-65
2022/07/17 10:42:45;;;;;;;5.27;0.80;;;;;;;26.99;25.52;101498.50;5119449;28;20501;-66
2022/07/17 10:45:13;;;;;;;3.03;0.93;;;;;;;26.62;27.29;101490.84;5120766;28;20419;-66
2022/07/17 10:47:45;;;;;;;2.03;1.10;;;;;;;28.16;25.64;101492.59;5120037;28;20438;-66
2022/07/17 10:50:12;;;;;;;4.40;0.90;;;;;;;29.66;23.61;101502.03;5119375;28;20496;-66
2022/07/17 10:52:39;;;;;;;1.53;0.73;;;;;;;29.64;23.08;101509.69;5121314;28;20502;-66
2022/07/17 10:55:19;;;;;;;2.60;0.80;;;;;;;28.09;23.84;101502.78;5120534;28;20426;-66
2022/07/17 10:57:46;;;;;;;3.47;1.00;;;;;;;29.82;22.56;101503.25;5120450;28;20430;-66
2022/07/17 11:00:15;;;;;;;3.07;1.17;;;;;;;30.11;20.53;101491.53;5120135;28;20982;-66
2022/07/17 11:02:42;;;;;;;3.50;1.07;;;;;;;30.26;20.29;101497.41;5120857;28;20431;-66
2022/07/17 11:05:09;;;;;;;1.97;0.80;;;;;;;29.02;21.74;101492.63;5118937;28;20545;-67
2022/07/17 11:07:36;;;;;;;1.60;0.80;;;;;;;30.41;20.79;101500.53;5120816;28;20480;-67
2022/07/17 11:10:02;;;;;;;2.30;1.00;;;;;;;31.43;19.73;101495.31;5120860;28;20449;-67
2022/07/17 11:12:34;;;;;;;4.50;1.17;;;;;;;31.27;19.87;101488.69;5119426;28;20492;-66
2022/07/17 11:15:01;;;;;;;3.63;0.60;;;;;;;31.07;19.81;101486.38;5120183;28;20452;-66
2022/07/17 11:17:28;;;;;;;4.20;1.20;;;;;;;29.98;21.29;101484.31;5119552;28;20474;-66
2022/07/17 11:19:55;;;;;;;3.80;1.20;;;;;;;28.43;22.45;101484.84;5119752;28;20446;-66
2022/07/17 11:22:24;;;;;;;1.93;0.90;;;;;;;27.79;23.08;101485.09;5120419;28;21014;-66
2022/07/17 11:24:51;;;;;;;6.77;1.13;;;;;;;29.02;22.33;101474.16;5119675;28;20503;-66